createdAt,value
2019-05-05T00:02:24.770Z,11.50
2019-05-05T00:04:57.319Z,11.63
2019-05-05T00:07:27.608Z,11.62
2019-05-05T00:09:56.251Z,11.62
2019-05-05T00:12:44.937Z,11.41
2019-05-05T00:15:31.551Z,11.52
2019-05-05T00:18:00.234Z,11.43
2019-05-05T00:20:28.913Z,11.38
2019-05-05T00:22:57.600Z,11.51
2019-05-05T00:25:26.304Z,11.60
2019-05-05T00:27:54.916Z,11.53
2019-05-05T00:30:24.933Z,11.43
2019-05-05T00:32:54.844Z,11.52
2019-05-05T00:35:25.261Z,11.51
2019-05-05T00:37:54.479Z,11.49
2019-05-05T00:40:24.795Z,11.52
2019-05-05T00:42:55.704Z,11.52
2019-05-05T00:45:25.240Z,11.54
2019-05-05T00:47:55.610Z,11.57
2019-05-05T00:50:25.246Z,11.61
2019-05-05T00:52:55.039Z,11.66
2019-05-05T00:55:24.461Z,11.68
2019-05-05T00:57:54.817Z,11.66
2019-05-05T01:00:39.345Z,11.80
2019-05-05T01:03:08.050Z,11.73
2019-05-05T01:05:44.890Z,11.72
2019-05-05T01:08:15.219Z,11.81
2019-05-05T01:10:48.006Z,11.89
2019-05-05T01:13:16.568Z,11.78
2019-05-05T01:15:45.417Z,11.56
2019-05-05T01:18:15.218Z,11.55
2019-05-05T01:20:44.862Z,11.54
2019-05-05T01:23:14.998Z,11.73
2019-05-05T01:25:46.113Z,11.84
2019-05-05T01:28:14.426Z,11.68
2019-05-05T01:30:44.847Z,11.67
2019-05-05T01:33:15.405Z,11.75
2019-05-05T01:35:44.865Z,11.70
2019-05-05T01:38:30.217Z,11.93
2019-05-05T01:41:15.489Z,11.89
2019-05-05T01:43:45.212Z,11.78
2019-05-05T01:46:14.460Z,11.75
2019-05-05T01:48:44.537Z,11.78
2019-05-05T01:51:20.582Z,11.75
2019-05-05T01:53:49.144Z,11.84
2019-05-05T01:56:18.490Z,11.85
2019-05-05T01:58:47.207Z,11.56
2019-05-05T02:01:15.967Z,11.61
2019-05-05T02:03:45.216Z,11.88
2019-05-05T02:06:14.308Z,11.96
2019-05-05T02:08:45.545Z,11.81
2019-05-05T02:11:15.656Z,11.76
2019-05-05T02:13:47.272Z,11.84
2019-05-05T02:16:15.957Z,11.83
2019-05-05T02:18:45.123Z,11.68
2019-05-05T02:21:17.031Z,11.64
2019-05-05T02:23:45.684Z,11.55
2019-05-05T02:26:15.288Z,11.50
2019-05-05T02:28:56.523Z,11.52
2019-05-05T02:31:45.402Z,11.51
2019-05-05T02:34:16.300Z,11.45
2019-05-05T02:36:45.983Z,11.39
2019-05-05T02:39:16.053Z,11.35
2019-05-05T02:41:45.739Z,11.44
2019-05-05T02:44:15.627Z,11.41
2019-05-05T02:46:47.017Z,11.29
2019-05-05T02:49:16.433Z,11.31
2019-05-05T02:51:49.091Z,11.41
2019-05-05T02:54:19.104Z,11.54
2019-05-05T02:56:55.822Z,11.45
2019-05-05T02:59:24.391Z,11.33
2019-05-05T03:01:55.224Z,11.37
2019-05-05T03:04:24.626Z,11.29
2019-05-05T03:06:56.415Z,11.28
2019-05-05T03:09:27.776Z,11.25
2019-05-05T03:11:59.060Z,11.12
2019-05-05T03:14:38.479Z,10.98
2019-05-05T03:17:10.088Z,10.98
2019-05-05T03:19:44.402Z,11.09
2019-05-05T03:22:14.350Z,11.07
2019-05-05T03:24:44.699Z,11.04
2019-05-05T03:27:14.442Z,10.94
2019-05-05T03:29:44.222Z,10.83
2019-05-05T03:32:16.151Z,10.75
2019-05-05T03:34:46.086Z,10.87
2019-05-05T03:37:15.828Z,10.98
2019-05-05T03:39:46.965Z,10.95
2019-05-05T03:42:17.090Z,11.05
2019-05-05T03:44:54.605Z,11.05
2019-05-05T03:47:24.285Z,11.19
2019-05-05T03:49:53.618Z,11.29
2019-05-05T03:52:24.488Z,11.28
2019-05-05T03:54:54.186Z,11.41
2019-05-05T03:57:24.627Z,11.57
2019-05-05T03:59:54.784Z,11.63
2019-05-05T04:02:44.546Z,11.67
2019-05-05T04:05:18.254Z,11.64
2019-05-05T04:07:47.147Z,11.64
2019-05-05T04:10:17.585Z,11.61
2019-05-05T04:12:46.345Z,11.60
2019-05-05T04:15:15.100Z,11.57
2019-05-05T04:17:54.303Z,11.56
2019-05-05T04:20:24.627Z,11.63
2019-05-05T04:22:54.225Z,11.77
2019-05-05T04:25:24.365Z,11.90
2019-05-05T04:27:55.555Z,12.01
2019-05-05T04:30:24.191Z,11.96
2019-05-05T04:32:54.787Z,12.10
2019-05-05T04:35:24.671Z,12.15
2019-05-05T04:37:54.383Z,12.24
2019-05-05T04:40:24.065Z,12.44
2019-05-05T04:42:54.641Z,12.55
2019-05-05T04:45:24.049Z,12.72
2019-05-05T04:47:57.219Z,12.84
2019-05-05T04:50:27.477Z,13.09
2019-05-05T04:53:00.758Z,13.23
2019-05-05T04:55:29.009Z,13.53
2019-05-05T04:57:57.599Z,13.57
2019-05-05T05:00:26.228Z,13.69
2019-05-05T05:03:14.119Z,13.84
2019-05-05T05:05:44.355Z,14.02
2019-05-05T05:08:20.085Z,14.20
2019-05-05T05:10:49.761Z,14.39
2019-05-05T05:13:18.257Z,14.54
2019-05-05T05:15:48.219Z,14.29
2019-05-05T05:18:17.440Z,14.25
2019-05-05T05:20:46.483Z,13.98
2019-05-05T05:23:18.184Z,13.73
2019-05-05T05:25:54.404Z,13.82
2019-05-05T05:28:23.701Z,13.89
2019-05-05T05:30:54.468Z,13.39
2019-05-05T05:33:23.849Z,13.40
2019-05-05T05:35:54.411Z,13.33
2019-05-05T05:38:24.225Z,13.38
2019-05-05T05:41:06.522Z,13.28
2019-05-05T05:43:36.839Z,13.10
2019-05-05T05:46:10.223Z,13.22
2019-05-05T05:48:46.675Z,13.58
2019-05-05T05:51:19.393Z,13.36
2019-05-05T05:53:47.108Z,13.35
2019-05-05T05:56:15.723Z,13.23
2019-05-05T05:58:44.285Z,13.30
2019-05-05T06:01:14.704Z,13.21
2019-05-05T06:03:44.344Z,13.13
2019-05-05T06:06:13.863Z,12.97
2019-05-05T06:08:43.979Z,13.13
2019-05-05T06:11:13.690Z,13.37
2019-05-05T06:13:44.421Z,13.39
2019-05-05T06:16:14.446Z,13.44
2019-05-05T06:18:43.717Z,13.23
2019-05-05T06:21:13.731Z,13.17
2019-05-05T06:23:43.708Z,13.13
2019-05-05T06:26:15.034Z,13.36
2019-05-05T06:28:44.711Z,13.39
2019-05-05T06:31:14.042Z,13.41
2019-05-05T06:33:43.796Z,13.77
2019-05-05T06:36:15.348Z,14.00
2019-05-05T06:38:43.964Z,14.22
2019-05-05T06:41:16.697Z,14.36
2019-05-05T06:44:03.728Z,14.24
2019-05-05T06:46:34.353Z,14.40
2019-05-05T06:49:04.353Z,14.95
2019-05-05T06:51:33.617Z,15.14
2019-05-05T06:54:04.476Z,15.48
2019-05-05T06:56:34.183Z,15.69
2019-05-05T06:59:04.437Z,15.68
2019-05-05T07:01:33.841Z,16.00
2019-05-05T07:04:03.464Z,15.94
2019-05-05T07:06:34.230Z,16.40
2019-05-05T07:09:02.597Z,16.93
2019-05-05T07:11:31.220Z,17.55
2019-05-05T07:13:59.793Z,18.17
2019-05-05T07:16:28.364Z,18.45
2019-05-05T07:18:57.051Z,18.91
2019-05-05T07:21:25.684Z,18.91
2019-05-05T07:23:54.375Z,19.10
2019-05-05T07:26:23.728Z,19.68
2019-05-05T07:28:54.108Z,19.53
2019-05-05T07:31:23.820Z,19.18
2019-05-05T07:33:54.409Z,19.56
2019-05-05T07:36:30.705Z,19.74
2019-05-05T07:38:59.359Z,19.45
2019-05-05T07:41:27.973Z,20.69
2019-05-05T07:43:56.614Z,20.92
2019-05-05T07:46:25.246Z,20.95
2019-05-05T07:48:54.449Z,20.13
2019-05-05T07:51:24.258Z,21.34
2019-05-05T07:53:55.677Z,20.62
2019-05-05T07:56:24.244Z,20.97
2019-05-05T07:58:56.068Z,22.03
2019-05-05T08:01:24.711Z,22.62
2019-05-05T08:03:53.868Z,22.88
2019-05-05T08:06:23.736Z,23.82
2019-05-05T08:08:54.450Z,24.74
2019-05-05T08:11:23.866Z,25.00
2019-05-05T08:13:54.574Z,25.46
2019-05-05T08:16:27.466Z,25.13
2019-05-05T08:18:57.634Z,25.18
2019-05-05T08:21:26.215Z,25.20
2019-05-05T08:23:56.425Z,26.06
2019-05-05T08:26:33.650Z,25.82
2019-05-05T08:29:04.621Z,25.35
2019-05-05T08:31:51.208Z,27.01
2019-05-05T08:34:19.771Z,26.74
2019-05-05T08:36:48.375Z,26.81
2019-05-05T08:39:16.937Z,25.06
2019-05-05T08:41:47.433Z,25.43
2019-05-05T08:44:18.033Z,25.12
2019-05-05T08:46:46.187Z,26.35
2019-05-05T08:49:14.753Z,27.68
2019-05-05T08:51:44.290Z,27.92
2019-05-05T08:54:14.359Z,27.71
2019-05-05T08:56:44.737Z,27.90
2019-05-05T08:59:14.326Z,29.29
2019-05-05T09:01:44.859Z,28.68
2019-05-05T09:04:14.217Z,28.76
2019-05-05T09:06:43.731Z,27.24
2019-05-05T09:09:14.416Z,27.51
2019-05-05T09:11:45.958Z,26.72
2019-05-05T09:14:15.084Z,26.04
2019-05-05T09:16:44.782Z,26.83
2019-05-05T09:19:20.985Z,25.61
2019-05-05T09:21:49.674Z,24.90
2019-05-05T09:24:35.133Z,27.41
2019-05-05T09:27:14.906Z,27.66
2019-05-05T09:29:44.143Z,29.63
2019-05-05T09:32:13.896Z,30.63
2019-05-05T09:34:43.610Z,30.52
2019-05-05T09:37:14.886Z,30.73
2019-05-05T09:39:46.496Z,31.57
2019-05-05T09:42:15.130Z,31.96
2019-05-05T09:44:43.964Z,31.50
2019-05-05T09:47:13.662Z,30.73
2019-05-05T09:49:44.569Z,30.86
2019-05-05T09:52:14.015Z,29.13
2019-05-05T09:54:43.868Z,27.50
2019-05-05T09:57:14.488Z,26.39
2019-05-05T09:59:44.173Z,26.49
2019-05-05T10:02:16.245Z,25.47
2019-05-05T10:04:44.928Z,25.28
2019-05-05T10:07:13.883Z,24.66
2019-05-05T10:09:43.783Z,24.93
2019-05-05T10:12:12.455Z,24.83
2019-05-05T10:14:40.987Z,25.73
2019-05-05T10:17:09.547Z,26.20
2019-05-05T10:19:38.145Z,26.54
2019-05-05T10:22:06.773Z,25.36
2019-05-05T10:24:36.960Z,24.89
2019-05-05T10:27:05.672Z,24.50
2019-05-05T10:29:34.311Z,24.75
2019-05-05T10:32:04.623Z,25.12
2019-05-05T10:34:33.587Z,25.17
2019-05-05T10:37:04.195Z,26.02
2019-05-05T10:39:34.340Z,28.10
2019-05-05T10:42:04.111Z,29.35
2019-05-05T10:44:34.066Z,29.94
2019-05-05T10:47:04.540Z,29.58
2019-05-05T10:49:33.787Z,28.89
2019-05-05T10:52:03.725Z,29.33
2019-05-05T10:54:43.177Z,29.43
2019-05-05T10:57:03.964Z,30.75
2019-05-05T10:59:34.352Z,30.85
2019-05-05T11:02:04.915Z,28.95
2019-05-05T11:04:33.715Z,27.81
2019-05-05T11:07:04.265Z,27.22
2019-05-05T11:09:33.837Z,26.59
2019-05-05T11:12:02.721Z,25.97
2019-05-05T11:14:33.530Z,26.11
2019-05-05T11:17:03.943Z,26.37
2019-05-05T11:19:33.598Z,26.53
2019-05-05T11:22:02.405Z,25.58
2019-05-05T11:24:34.566Z,25.44
2019-05-05T11:27:04.490Z,25.03
2019-05-05T11:29:34.821Z,24.39
2019-05-05T11:32:05.085Z,24.07
2019-05-05T11:34:33.850Z,24.03
2019-05-05T11:37:09.637Z,23.70
2019-05-05T11:39:38.298Z,23.56
2019-05-05T11:42:09.649Z,23.68
2019-05-05T11:44:38.272Z,23.67
2019-05-05T11:47:06.947Z,23.86
2019-05-05T11:49:35.529Z,23.94
2019-05-05T11:52:04.693Z,24.19
2019-05-05T11:54:33.346Z,24.06
2019-05-05T11:57:03.721Z,23.70
2019-05-05T11:59:32.201Z,24.01
2019-05-05T12:02:00.775Z,23.79
2019-05-05T12:04:29.409Z,23.36
2019-05-05T12:06:57.910Z,23.34
2019-05-05T12:09:28.044Z,23.38
2019-05-05T12:11:56.607Z,23.43
2019-05-05T12:14:27.381Z,23.76
2019-05-05T12:16:56.054Z,24.27
2019-05-05T12:19:24.580Z,25.15
2019-05-05T12:21:55.807Z,25.25
2019-05-05T12:24:26.136Z,25.04
2019-05-05T12:26:59.308Z,25.78
2019-05-05T12:29:28.058Z,25.84
2019-05-05T12:31:56.661Z,25.62
2019-05-05T12:34:25.231Z,25.58
2019-05-05T12:36:54.162Z,25.50
2019-05-05T12:39:22.832Z,25.50
2019-05-05T12:41:51.407Z,25.48
2019-05-05T12:44:23.596Z,25.05
2019-05-05T12:46:53.546Z,24.59
2019-05-05T12:49:24.812Z,24.80
2019-05-05T12:51:54.087Z,25.04
2019-05-05T12:54:24.535Z,25.37
2019-05-05T12:56:53.905Z,25.53
2019-05-05T12:59:25.010Z,25.83
2019-05-05T13:01:54.739Z,25.69
2019-05-05T13:04:24.605Z,25.46
2019-05-05T13:06:53.990Z,25.70
2019-05-05T13:09:24.344Z,25.58
2019-05-05T13:11:54.144Z,25.73
2019-05-05T13:14:23.038Z,25.46
2019-05-05T13:16:53.897Z,25.93
2019-05-05T13:19:26.054Z,25.68
2019-05-05T13:22:03.632Z,25.63
2019-05-05T13:24:36.684Z,25.48
2019-05-05T13:27:09.761Z,25.78
2019-05-05T13:29:37.369Z,25.92
2019-05-05T13:32:06.012Z,25.97
2019-05-05T13:34:34.720Z,26.19
2019-05-05T13:37:03.634Z,26.25
2019-05-05T13:39:34.019Z,26.39
2019-05-05T13:42:05.429Z,26.31
2019-05-05T13:44:51.108Z,26.22
2019-05-05T13:47:19.784Z,25.89
2019-05-05T13:49:49.219Z,25.71
2019-05-05T13:52:17.865Z,25.59
2019-05-05T13:54:46.562Z,25.43
2019-05-05T13:57:15.131Z,25.17
2019-05-05T13:59:44.438Z,24.99
2019-05-05T14:02:13.741Z,24.74
2019-05-05T14:04:43.783Z,24.23
2019-05-05T14:07:12.614Z,23.81
2019-05-05T14:09:41.204Z,23.79
2019-05-05T14:12:09.847Z,23.71
2019-05-05T14:14:38.418Z,23.56
2019-05-05T14:17:06.982Z,23.07
2019-05-05T14:19:35.551Z,22.98
2019-05-05T14:22:04.569Z,23.01
2019-05-05T14:24:37.929Z,22.96
2019-05-05T14:27:06.566Z,22.59
2019-05-05T14:29:36.823Z,22.16
2019-05-05T14:32:07.030Z,21.80
2019-05-05T14:34:46.043Z,21.83
2019-05-05T14:37:31.369Z,21.84
2019-05-05T14:40:00.082Z,21.80
2019-05-05T14:42:28.727Z,22.05
2019-05-05T14:44:57.222Z,22.39
2019-05-05T14:47:25.866Z,24.42
2019-05-05T14:49:54.506Z,26.08
2019-05-05T14:52:25.897Z,26.72
2019-05-05T14:54:54.637Z,26.48
2019-05-05T14:57:24.997Z,25.15
2019-05-05T14:59:54.095Z,25.20
2019-05-05T15:02:24.383Z,26.12
2019-05-05T15:04:54.930Z,26.75
2019-05-05T15:07:25.722Z,26.56
2019-05-05T15:09:56.036Z,25.19
2019-05-05T15:12:26.332Z,24.19
2019-05-05T15:14:54.967Z,23.41
2019-05-05T15:17:24.620Z,23.20
2019-05-05T15:19:54.089Z,23.00
2019-05-05T15:22:23.916Z,22.48
2019-05-05T15:25:07.766Z,22.41
2019-05-05T15:30:33.496Z,21.83
2019-05-05T15:33:02.239Z,22.84
2019-05-05T15:35:31.014Z,23.55
2019-05-05T15:38:04.405Z,23.06
2019-05-05T15:40:33.738Z,22.70
2019-05-05T15:43:03.817Z,22.48
2019-05-05T15:45:34.091Z,22.40
2019-05-05T15:48:04.571Z,22.64
2019-05-05T15:50:33.212Z,23.34
2019-05-05T15:53:03.698Z,24.54
2019-05-05T15:55:33.874Z,24.73
2019-05-05T15:58:03.542Z,24.43
2019-05-05T16:00:33.779Z,25.35
2019-05-05T16:03:04.248Z,26.37
2019-05-05T16:05:34.435Z,27.21
2019-05-05T16:08:04.512Z,27.99
2019-05-05T16:10:34.723Z,28.50
2019-05-05T16:13:04.465Z,28.76
2019-05-05T16:15:34.830Z,29.02
2019-05-05T16:18:10.968Z,29.26
2019-05-05T16:20:57.608Z,28.83
2019-05-05T16:23:27.746Z,27.42
2019-05-05T16:25:56.433Z,26.34
2019-05-05T16:28:25.243Z,25.52
2019-05-05T16:30:56.141Z,24.45
2019-05-05T16:33:25.053Z,24.66
2019-05-05T16:35:53.619Z,25.16
2019-05-05T16:38:23.917Z,25.54
2019-05-05T16:40:53.746Z,25.74
2019-05-05T16:43:24.554Z,25.49
2019-05-05T16:45:53.743Z,24.33
2019-05-05T16:48:25.753Z,23.74
2019-05-05T16:50:57.323Z,22.91
2019-05-05T16:53:35.950Z,22.97
2019-05-05T16:56:07.170Z,22.96
2019-05-05T16:58:35.922Z,22.51
2019-05-05T17:01:06.377Z,22.16
2019-05-05T17:03:35.058Z,21.94
2019-05-05T17:06:03.854Z,21.69
2019-05-05T17:08:33.786Z,21.41
2019-05-05T17:11:02.609Z,21.02
2019-05-05T17:13:33.481Z,21.01
2019-05-05T17:16:20.001Z,20.85
2019-05-05T17:18:55.904Z,20.35
2019-05-05T17:21:42.321Z,19.89
2019-05-05T17:24:11.600Z,19.52
2019-05-05T17:26:40.181Z,19.40
2019-05-05T17:29:08.676Z,19.30
2019-05-05T17:31:39.950Z,19.28
2019-05-05T17:34:08.636Z,19.17
2019-05-05T17:36:37.277Z,19.17
2019-05-05T17:39:08.804Z,19.10
2019-05-05T17:41:45.112Z,19.07
2019-05-05T17:44:24.247Z,18.96
2019-05-05T17:46:57.245Z,18.89
2019-05-05T17:49:30.030Z,18.62
2019-05-05T17:52:03.684Z,18.46
2019-05-05T17:54:39.532Z,18.46
2019-05-05T17:57:08.191Z,18.40
2019-05-05T17:59:36.779Z,18.38
2019-05-05T18:02:05.426Z,18.33
2019-05-05T18:04:34.067Z,18.20
2019-05-05T18:07:10.194Z,18.01
2019-05-05T18:09:59.118Z,17.82
2019-05-05T18:12:29.394Z,17.60
2019-05-05T18:15:00.963Z,17.54
2019-05-05T18:17:29.643Z,17.50
2019-05-05T18:20:01.093Z,17.35
2019-05-05T18:22:29.664Z,17.37
2019-05-05T18:25:01.070Z,17.61
2019-05-05T18:27:29.652Z,17.56
2019-05-05T18:30:00.838Z,17.40
2019-05-05T18:32:29.482Z,17.40
2019-05-05T18:35:03.702Z,17.27
2019-05-05T18:37:31.044Z,17.36
2019-05-05T18:40:04.059Z,17.25
2019-05-05T18:42:35.733Z,17.25
2019-05-05T18:45:08.010Z,17.20
2019-05-05T18:47:36.654Z,17.19
2019-05-05T18:50:07.087Z,17.16
2019-05-05T18:52:35.744Z,17.19
2019-05-05T18:55:08.609Z,17.32
2019-05-05T18:57:37.254Z,17.36
2019-05-05T19:00:09.346Z,17.25
2019-05-05T19:02:39.569Z,17.13
2019-05-05T19:05:12.978Z,16.97
2019-05-05T19:07:55.168Z,16.91
2019-05-05T19:10:16.613Z,16.84
2019-05-05T19:12:45.212Z,16.71
2019-05-05T19:15:14.226Z,16.71
2019-05-05T19:17:42.856Z,16.76
2019-05-05T19:20:14.634Z,16.73
2019-05-05T19:22:43.639Z,16.72
2019-05-05T19:25:15.177Z,16.65
2019-05-05T19:27:45.325Z,16.58
2019-05-05T19:30:15.387Z,16.59
2019-05-05T19:32:43.968Z,16.71
2019-05-05T19:35:12.724Z,16.75
2019-05-05T19:37:44.591Z,16.75
2019-05-05T19:40:16.308Z,16.95
2019-05-05T19:42:46.250Z,17.05
2019-05-05T19:45:15.066Z,16.96
2019-05-05T19:47:44.053Z,16.77
2019-05-05T19:50:33.740Z,16.65
2019-05-05T19:53:04.281Z,16.42
2019-05-05T19:55:33.802Z,16.42
2019-05-05T19:58:03.901Z,16.13
2019-05-05T20:00:35.169Z,16.09
2019-05-05T20:03:05.053Z,16.09
2019-05-05T20:05:36.123Z,16.09
2019-05-05T20:08:04.766Z,15.84
2019-05-05T20:10:33.352Z,15.82
2019-05-05T20:13:01.997Z,15.68
2019-05-05T20:15:33.800Z,15.63
2019-05-05T20:18:04.529Z,15.49
2019-05-05T20:20:33.665Z,15.46
2019-05-05T20:23:04.211Z,15.27
2019-05-05T20:25:34.066Z,15.27
2019-05-05T20:28:03.909Z,15.23
2019-05-05T20:30:34.258Z,15.11
2019-05-05T20:33:07.412Z,15.14
2019-05-05T20:35:43.688Z,15.12
2019-05-05T20:38:32.248Z,14.94
2019-05-05T20:41:13.930Z,14.80
2019-05-05T20:43:44.512Z,14.73
2019-05-05T20:46:12.433Z,14.59
2019-05-05T20:48:41.508Z,14.55
2019-05-05T20:51:10.293Z,14.42
2019-05-05T20:53:38.907Z,14.37
2019-05-05T20:56:07.494Z,14.29
2019-05-05T20:58:36.151Z,14.18
2019-05-05T21:01:04.922Z,14.16
2019-05-05T21:03:34.650Z,14.13
2019-05-05T21:06:04.467Z,14.11
2019-05-05T21:08:34.830Z,14.06
2019-05-05T21:11:04.337Z,13.91
2019-05-05T21:13:34.114Z,13.93
2019-05-05T21:16:02.973Z,13.86
2019-05-05T21:18:31.547Z,13.75
2019-05-05T21:21:01.807Z,13.82
2019-05-05T21:23:35.077Z,13.71
2019-05-05T21:26:08.288Z,13.63
2019-05-05T21:28:36.792Z,13.65
2019-05-05T21:31:11.384Z,13.68
2019-05-05T21:33:39.900Z,13.75
2019-05-05T21:36:08.546Z,13.72
2019-05-05T21:38:37.268Z,13.60
2019-05-05T21:41:05.840Z,13.54
2019-05-05T21:43:34.457Z,13.61
2019-05-05T21:46:04.441Z,13.69
2019-05-05T21:48:34.073Z,13.68
2019-05-05T21:51:10.047Z,13.54
2019-05-05T21:53:49.360Z,13.54
2019-05-05T21:56:28.609Z,13.43
2019-05-05T21:59:00.021Z,13.49
2019-05-05T22:01:29.676Z,13.50
2019-05-05T22:03:58.298Z,13.31
2019-05-05T22:06:27.003Z,13.12
2019-05-05T22:08:55.514Z,13.15
2019-05-05T22:11:24.416Z,13.10
2019-05-05T22:13:54.038Z,12.88
2019-05-05T22:16:22.856Z,12.88
2019-05-05T22:18:54.071Z,12.91
2019-05-05T22:21:27.284Z,13.06
2019-05-05T22:24:16.122Z,13.22
2019-05-05T22:26:45.144Z,13.23
2019-05-05T22:29:16.829Z,13.17
2019-05-05T22:31:44.419Z,13.15
2019-05-05T22:34:14.565Z,13.21
2019-05-05T22:36:44.847Z,13.04
2019-05-05T22:39:16.887Z,12.91
2019-05-05T22:41:47.692Z,12.83
2019-05-05T22:44:19.176Z,12.81
2019-05-05T22:46:47.753Z,12.82
2019-05-05T22:49:16.398Z,12.79
2019-05-05T22:51:44.996Z,12.76
2019-05-05T22:54:15.008Z,12.54
2019-05-05T22:56:44.857Z,12.49
2019-05-05T22:59:13.953Z,12.53
2019-05-05T23:01:42.679Z,12.48
2019-05-05T23:04:18.960Z,12.53
2019-05-05T23:06:58.147Z,12.47
2019-05-05T23:09:26.727Z,12.39
2019-05-05T23:11:58.095Z,12.35
2019-05-05T23:14:30.325Z,12.37
2019-05-05T23:17:11.027Z,12.28
2019-05-05T23:19:57.895Z,12.27
2019-05-05T23:22:30.856Z,12.23
2019-05-05T23:25:01.078Z,12.13
2019-05-05T23:27:48.456Z,12.09
2019-05-05T23:30:19.914Z,12.08
2019-05-05T23:32:48.621Z,11.93
2019-05-05T23:35:18.204Z,11.89
2019-05-05T23:37:47.147Z,11.94
2019-05-05T23:40:24.771Z,11.92
2019-05-05T23:42:54.215Z,11.87
2019-05-05T23:45:24.897Z,11.72
2019-05-05T23:47:54.394Z,11.78
2019-05-05T23:50:23.764Z,11.84
2019-05-05T23:52:54.538Z,11.90
2019-05-05T23:55:23.973Z,11.82
2019-05-05T23:57:54.746Z,11.83
